Aledo, IL (61231)

9:41 AM CDT on July 27, 2016 (GMT -0500)
KILALEDO2 | | Change Station

Elev 735 ft 41.20 °N, 90.76 °W | Updated 8 seconds ago

Clear
Clear
80.4 °F
Feels Like 84 °F
N
2.5
Wind Variable Wind from WSW
Gusts 2.7 mph

Today
High -- | Low -- °F
--% Chance of Precip.
Yesterday
High -- | Low -- °F
Precip. -- in
Pressure 30.00 in
Visibility 10.0 miles
Clouds Clear
Heat Index 84 °F
Dew Point 71 °F
Humidity 72%
Rainfall 0.00 in
Snow Depth Not available.
5:54 AM 8:24 PM
Last Quarter, 42% visible
METAR KMLI 271352Z 04004KT 10SM CLR 26/19 A3001 RMK AO2 SLP158 T02610194
Pressure 30.00 in
Visibility 10.0 miles
Clouds Clear
Heat Index 84 °F
Dew Point 71 °F
Humidity 72%
Rainfall 0.00 in
Snow Depth Not available.
5:54 AM 8:24 PM
Last Quarter, 42% visible
METAR KMLI 271352Z 04004KT 10SM CLR 26/19 A3001 RMK AO2 SLP158 T02610194

10-Day Weather Forecast

Almanac

Astronomy

Jul. 27, 2016 Rise Set
Actual Time
Civil Twilight
Nautical Twilight
Astronomical Twilight
Moon
Length of Visible Light
Length of Day
Tomorrow will be .
, % of the Moon is Illuminated

Today's Extremes

State Highs State Lows

Community

WunderPhotos

Upload Photos

1,927,847 photos uploaded!

WunderBlog® & News

Nearby

Air Quality

  Air Quality AQ Index Pollutant
Not available.

Snow Depth

Station Depth Elevation

Earthquake Activity

City Distance Mag. Time & Date
Minimum magnitude displayed is 2.5.

Coastal Water Temperatures

Place Temperature

Stations

Nearby Weather Stations

Station Location Temp. Windchill Dew Point Humidity Wind Precip. Elev Updated Type
                   

Watches & Warnings

There are currently no watches in effect.